sensor_id;sensor_type;location;lat;lon;timestamp;P1;durP1;ratioP1;P2;durP2;ratioP2
23121;SDS011;11730;51.248;22.534;2023-10-13T00:01:22;24.80;;;12.68;;
23121;SDS011;11730;51.248;22.534;2023-10-13T00:03:50;29.00;;;13.90;;
23121;SDS011;11730;51.248;22.534;2023-10-13T00:06:19;24.95;;;13.60;;
23121;SDS011;11730;51.248;22.534;2023-10-13T00:08:46;24.10;;;14.05;;
23121;SDS011;11730;51.248;22.534;2023-10-13T00:11:13;27.67;;;14.05;;
23121;SDS011;11730;51.248;22.534;2023-10-13T00:13:41;24.85;;;13.75;;
23121;SDS011;11730;51.248;22.534;2023-10-13T00:16:17;28.13;;;14.20;;
23121;SDS011;11730;51.248;22.534;2023-10-13T00:18:49;27.63;;;14.27;;
23121;SDS011;11730;51.248;22.534;2023-10-13T00:21:21;28.35;;;14.75;;
23121;SDS011;11730;51.248;22.534;2023-10-13T00:24:02;26.20;;;14.70;;
23121;SDS011;11730;51.248;22.534;2023-10-13T00:26:38;30.98;;;15.70;;
23121;SDS011;11730;51.248;22.534;2023-10-13T00:29:09;24.15;;;13.85;;
23121;SDS011;11730;51.248;22.534;2023-10-13T00:31:37;19.45;;;13.23;;
23121;SDS011;11730;51.248;22.534;2023-10-13T00:34:07;23.70;;;12.32;;
23121;SDS011;11730;51.248;22.534;2023-10-13T00:36:55;23.15;;;12.25;;
23121;SDS011;11730;51.248;22.534;2023-10-13T00:39:43;17.27;;;11.50;;
23121;SDS011;11730;51.248;22.534;2023-10-13T00:42:13;22.80;;;11.23;;
23121;SDS011;11730;51.248;22.534;2023-10-13T00:44:50;19.75;;;10.88;;
23121;SDS011;11730;51.248;22.534;2023-10-13T00:47:21;19.65;;;10.75;;
23121;SDS011;11730;51.248;22.534;2023-10-13T00:50:04;17.52;;;10.68;;
23121;SDS011;11730;51.248;22.534;2023-10-13T00:52:32;17.88;;;10.25;;
23121;SDS011;11730;51.248;22.534;2023-10-13T00:55:01;19.15;;;9.93;;
23121;SDS011;11730;51.248;22.534;2023-10-13T00:57:31;16.48;;;9.23;;
23121;SDS011;11730;51.248;22.534;2023-10-13T00:59:59;14.32;;;9.27;;
23121;SDS011;11730;51.248;22.534;2023-10-13T01:02:39;17.73;;;10.00;;
23121;SDS011;11730;51.248;22.534;2023-10-13T01:05:07;14.73;;;8.90;;
23121;SDS011;11730;51.248;22.534;2023-10-13T01:07:37;14.60;;;9.95;;
23121;SDS011;11730;51.248;22.534;2023-10-13T01:10:04;15.93;;;9.15;;
23121;SDS011;11730;51.248;22.534;2023-10-13T01:12:39;14.63;;;9.32;;
23121;SDS011;11730;51.248;22.534;2023-10-13T01:15:09;16.08;;;9.02;;
23121;SDS011;11730;51.248;22.534;2023-10-13T01:17:37;15.68;;;8.35;;
23121;SDS011;11730;51.248;22.534;2023-10-13T01:20:04;13.57;;;8.38;;
23121;SDS011;11730;51.248;22.534;2023-10-13T01:22:32;11.57;;;7.93;;
23121;SDS011;11730;51.248;22.534;2023-10-13T01:24:59;14.50;;;8.38;;
23121;SDS011;11730;51.248;22.534;2023-10-13T01:27:39;13.85;;;8.60;;
23121;SDS011;11730;51.248;22.534;2023-10-13T01:30:07;13.90;;;8.85;;
23121;SDS011;11730;51.248;22.534;2023-10-13T01:32:49;11.88;;;7.95;;
23121;SDS011;11730;51.248;22.534;2023-10-13T01:35:17;16.33;;;8.80;;
23121;SDS011;11730;51.248;22.534;2023-10-13T01:37:45;11.95;;;8.13;;
23121;SDS011;11730;51.248;22.534;2023-10-13T01:40:12;12.60;;;7.85;;
23121;SDS011;11730;51.248;22.534;2023-10-13T01:42:46;13.85;;;8.88;;
23121;SDS011;11730;51.248;22.534;2023-10-13T01:45:13;12.43;;;7.25;;
23121;SDS011;11730;51.248;22.534;2023-10-13T01:47:40;11.90;;;6.80;;
23121;SDS011;11730;51.248;22.534;2023-10-13T01:50:13;10.60;;;6.68;;
23121;SDS011;11730;51.248;22.534;2023-10-13T01:52:45;11.35;;;6.70;;
23121;SDS011;11730;51.248;22.534;2023-10-13T01:55:13;10.55;;;5.63;;
23121;SDS011;11730;51.248;22.534;2023-10-13T01:57:41;10.70;;;6.18;;
23121;SDS011;11730;51.248;22.534;2023-10-13T02:00:13;12.80;;;6.40;;
23121;SDS011;11730;51.248;22.534;2023-10-13T02:02:49;11.57;;;7.35;;
23121;SDS011;11730;51.248;22.534;2023-10-13T02:05:17;15.20;;;8.68;;
23121;SDS011;11730;51.248;22.534;2023-10-13T02:07:44;10.77;;;6.38;;
23121;SDS011;11730;51.248;22.534;2023-10-13T02:10:12;13.95;;;6.10;;
23121;SDS011;11730;51.248;22.534;2023-10-13T02:12:39;10.38;;;5.63;;
23121;SDS011;11730;51.248;22.534;2023-10-13T02:15:10;8.73;;;4.82;;
23121;SDS011;11730;51.248;22.534;2023-10-13T02:17:47;12.60;;;5.47;;
23121;SDS011;11730;51.248;22.534;2023-10-13T02:20:18;11.05;;;5.45;;
23121;SDS011;11730;51.248;22.534;2023-10-13T02:22:49;8.50;;;4.45;;
23121;SDS011;11730;51.248;22.534;2023-10-13T02:25:17;11.60;;;5.28;;
23121;SDS011;11730;51.248;22.534;2023-10-13T02:28:02;10.88;;;4.78;;
23121;SDS011;11730;51.248;22.534;2023-10-13T02:30:41;10.80;;;4.40;;
23121;SDS011;11730;51.248;22.534;2023-10-13T02:33:15;10.10;;;4.85;;
23121;SDS011;11730;51.248;22.534;2023-10-13T02:35:48;9.45;;;4.57;;
23121;SDS011;11730;51.248;22.534;2023-10-13T02:38:24;11.95;;;5.00;;
23121;SDS011;11730;51.248;22.534;2023-10-13T02:41:10;12.00;;;4.68;;
23121;SDS011;11730;51.248;22.534;2023-10-13T02:43:38;7.20;;;4.57;;
23121;SDS011;11730;51.248;22.534;2023-10-13T02:46:06;9.05;;;4.35;;
23121;SDS011;11730;51.248;22.534;2023-10-13T02:48:33;10.90;;;4.82;;
23121;SDS011;11730;51.248;22.534;2023-10-13T02:53:44;10.13;;;4.75;;
23121;SDS011;11730;51.248;22.534;2023-10-13T02:56:15;7.93;;;4.68;;
23121;SDS011;11730;51.248;22.534;2023-10-13T02:58:50;11.27;;;4.45;;
23121;SDS011;11730;51.248;22.534;2023-10-13T03:01:23;9.52;;;5.10;;
23121;SDS011;11730;51.248;22.534;2023-10-13T03:03:55;11.40;;;5.15;;
23121;SDS011;11730;51.248;22.534;2023-10-13T03:06:25;12.82;;;4.43;;
23121;SDS011;11730;51.248;22.534;2023-10-13T03:09:00;8.45;;;4.43;;
23121;SDS011;11730;51.248;22.534;2023-10-13T03:11:41;7.78;;;4.03;;
23121;SDS011;11730;51.248;22.534;2023-10-13T03:14:09;12.23;;;4.25;;
23121;SDS011;11730;51.248;22.534;2023-10-13T03:16:54;7.40;;;4.00;;
23121;SDS011;11730;51.248;22.534;2023-10-13T03:19:29;10.98;;;4.68;;
23121;SDS011;11730;51.248;22.534;2023-10-13T03:22:00;10.50;;;3.95;;
23121;SDS011;11730;51.248;22.534;2023-10-13T03:24:38;10.30;;;3.65;;
23121;SDS011;11730;51.248;22.534;2023-10-13T03:27:16;11.10;;;3.95;;
23121;SDS011;11730;51.248;22.534;2023-10-13T03:29:45;6.88;;;3.53;;
23121;SDS011;11730;51.248;22.534;2023-10-13T03:32:14;9.77;;;3.22;;
23121;SDS011;11730;51.248;22.534;2023-10-13T03:34:45;7.43;;;3.47;;
23121;SDS011;11730;51.248;22.534;2023-10-13T03:37:19;9.73;;;3.55;;
23121;SDS011;11730;51.248;22.534;2023-10-13T03:40:07;10.50;;;4.43;;
23121;SDS011;11730;51.248;22.534;2023-10-13T03:42:48;7.47;;;3.67;;
23121;SDS011;11730;51.248;22.534;2023-10-13T03:45:36;10.98;;;3.85;;
23121;SDS011;11730;51.248;22.534;2023-10-13T03:48:11;11.25;;;3.50;;
23121;SDS011;11730;51.248;22.534;2023-10-13T03:50:52;10.50;;;3.67;;
23121;SDS011;11730;51.248;22.534;2023-10-13T03:53:37;7.60;;;3.80;;
23121;SDS011;11730;51.248;22.534;2023-10-13T03:56:24;13.35;;;4.97;;
23121;SDS011;11730;51.248;22.534;2023-10-13T03:58:58;12.07;;;4.10;;
23121;SDS011;11730;51.248;22.534;2023-10-13T04:01:52;6.03;;;3.50;;
23121;SDS011;11730;51.248;22.534;2023-10-13T04:04:19;11.60;;;3.78;;
23121;SDS011;11730;51.248;22.534;2023-10-13T04:07:05;8.63;;;3.88;;
23121;SDS011;11730;51.248;22.534;2023-10-13T04:09:36;10.40;;;4.25;;
23121;SDS011;11730;51.248;22.534;2023-10-13T04:12:04;9.02;;;3.72;;
23121;SDS011;11730;51.248;22.534;2023-10-13T04:14:33;11.57;;;4.25;;
23121;SDS011;11730;51.248;22.534;2023-10-13T04:17:19;7.65;;;4.18;;
23121;SDS011;11730;51.248;22.534;2023-10-13T04:19:53;12.57;;;4.53;;
23121;SDS011;11730;51.248;22.534;2023-10-13T04:22:34;10.27;;;4.10;;
23121;SDS011;11730;51.248;22.534;2023-10-13T04:25:23;13.05;;;4.20;;
23121;SDS011;11730;51.248;22.534;2023-10-13T04:28:10;15.10;;;4.35;;
23121;SDS011;11730;51.248;22.534;2023-10-13T04:30:43;10.90;;;4.78;;
23121;SDS011;11730;51.248;22.534;2023-10-13T04:33:25;9.55;;;5.00;;
23121;SDS011;11730;51.248;22.534;2023-10-13T04:36:15;13.20;;;4.53;;
23121;SDS011;11730;51.248;22.534;2023-10-13T04:38:58;17.48;;;5.07;;
23121;SDS011;11730;51.248;22.534;2023-10-13T04:41:32;14.32;;;4.80;;
23121;SDS011;11730;51.248;22.534;2023-10-13T04:44:24;12.93;;;4.25;;
23121;SDS011;11730;51.248;22.534;2023-10-13T04:47:24;12.77;;;5.63;;
23121;SDS011;11730;51.248;22.534;2023-10-13T04:49:55;12.82;;;4.95;;
23121;SDS011;11730;51.248;22.534;2023-10-13T04:52:27;16.90;;;5.15;;
23121;SDS011;11730;51.248;22.534;2023-10-13T04:55:27;9.48;;;4.35;;
23121;SDS011;11730;51.248;22.534;2023-10-13T04:58:26;16.95;;;5.28;;
23121;SDS011;11730;51.248;22.534;2023-10-13T05:01:00;18.38;;;6.90;;
23121;SDS011;11730;51.248;22.534;2023-10-13T05:03:46;16.40;;;6.03;;
23121;SDS011;11730;51.248;22.534;2023-10-13T05:06:36;11.35;;;5.45;;
23121;SDS011;11730;51.248;22.534;2023-10-13T05:09:10;15.30;;;5.85;;
23121;SDS011;11730;51.248;22.534;2023-10-13T05:11:59;11.57;;;6.35;;
23121;SDS011;11730;51.248;22.534;2023-10-13T05:14:45;17.17;;;7.30;;
23121;SDS011;11730;51.248;22.534;2023-10-13T05:17:31;18.95;;;6.65;;
23121;SDS011;11730;51.248;22.534;2023-10-13T05:20:16;14.43;;;6.25;;
23121;SDS011;11730;51.248;22.534;2023-10-13T05:23:02;19.77;;;6.90;;
23121;SDS011;11730;51.248;22.534;2023-10-13T05:25:48;17.42;;;6.70;;
23121;SDS011;11730;51.248;22.534;2023-10-13T05:28:34;13.52;;;6.70;;
23121;SDS011;11730;51.248;22.534;2023-10-13T05:31:51;14.68;;;6.95;;
23121;SDS011;11730;51.248;22.534;2023-10-13T05:34:36;17.98;;;7.10;;
23121;SDS011;11730;51.248;22.534;2023-10-13T05:37:22;15.57;;;7.63;;
23121;SDS011;11730;51.248;22.534;2023-10-13T05:40:08;12.18;;;7.68;;
23121;SDS011;11730;51.248;22.534;2023-10-13T05:43:08;13.55;;;7.35;;
23121;SDS011;11730;51.248;22.534;2023-10-13T05:45:55;13.80;;;6.55;;
23121;SDS011;11730;51.248;22.534;2023-10-13T05:48:49;17.13;;;6.18;;
23121;SDS011;11730;51.248;22.534;2023-10-13T05:54:02;17.88;;;7.18;;
23121;SDS011;11730;51.248;22.534;2023-10-13T05:56:42;10.63;;;6.05;;
23121;SDS011;11730;51.248;22.534;2023-10-13T05:59:35;17.42;;;6.50;;
23121;SDS011;11730;51.248;22.534;2023-10-13T06:02:23;15.70;;;6.43;;
23121;SDS011;11730;51.248;22.534;2023-10-13T06:05:12;18.50;;;6.00;;
23121;SDS011;11730;51.248;22.534;2023-10-13T06:07:58;11.65;;;5.78;;
23121;SDS011;11730;51.248;22.534;2023-10-13T06:10:44;11.95;;;6.25;;
23121;SDS011;11730;51.248;22.534;2023-10-13T06:13:30;19.00;;;6.78;;
23121;SDS011;11730;51.248;22.534;2023-10-13T06:16:16;17.55;;;6.38;;
23121;SDS011;11730;51.248;22.534;2023-10-13T06:19:02;18.08;;;5.82;;
23121;SDS011;11730;51.248;22.534;2023-10-13T06:21:49;14.38;;;6.00;;
23121;SDS011;11730;51.248;22.534;2023-10-13T06:24:35;12.45;;;6.18;;
23121;SDS011;11730;51.248;22.534;2023-10-13T06:27:20;14.02;;;5.88;;
23121;SDS011;11730;51.248;22.534;2023-10-13T06:30:06;12.85;;;6.20;;
23121;SDS011;11730;51.248;22.534;2023-10-13T06:32:34;12.48;;;5.82;;
23121;SDS011;11730;51.248;22.534;2023-10-13T06:35:02;10.93;;;5.75;;
23121;SDS011;11730;51.248;22.534;2023-10-13T06:37:56;12.02;;;5.68;;
23121;SDS011;11730;51.248;22.534;2023-10-13T06:40:27;14.45;;;6.18;;
23121;SDS011;11730;51.248;22.534;2023-10-13T06:43:04;21.00;;;7.47;;
23121;SDS011;11730;51.248;22.534;2023-10-13T06:45:39;17.17;;;7.68;;
23121;SDS011;11730;51.248;22.534;2023-10-13T06:48:06;15.70;;;8.27;;
23121;SDS011;11730;51.248;22.534;2023-10-13T06:50:37;18.35;;;7.85;;
23121;SDS011;11730;51.248;22.534;2023-10-13T06:53:12;18.77;;;8.05;;
23121;SDS011;11730;51.248;22.534;2023-10-13T06:55:39;19.40;;;8.40;;
23121;SDS011;11730;51.248;22.534;2023-10-13T06:58:06;14.77;;;6.78;;
23121;SDS011;11730;51.248;22.534;2023-10-13T07:00:40;22.40;;;7.28;;
23121;SDS011;11730;51.248;22.534;2023-10-13T07:03:19;15.65;;;7.18;;
23121;SDS011;11730;51.248;22.534;2023-10-13T07:05:46;18.52;;;6.15;;
23121;SDS011;11730;51.248;22.534;2023-10-13T07:08:17;22.52;;;6.65;;
23121;SDS011;11730;51.248;22.534;2023-10-13T07:10:51;16.58;;;6.65;;
23121;SDS011;11730;51.248;22.534;2023-10-13T07:13:29;21.80;;;9.88;;
23121;SDS011;11730;51.248;22.534;2023-10-13T07:15:56;25.77;;;9.30;;
23121;SDS011;11730;51.248;22.534;2023-10-13T07:18:34;25.65;;;9.05;;
23121;SDS011;11730;51.248;22.534;2023-10-13T07:21:03;24.48;;;9.20;;
23121;SDS011;11730;51.248;22.534;2023-10-13T07:23:40;20.55;;;9.85;;
23121;SDS011;11730;51.248;22.534;2023-10-13T07:26:27;29.13;;;10.52;;
23121;SDS011;11730;51.248;22.534;2023-10-13T07:28:55;21.60;;;11.27;;
23121;SDS011;11730;51.248;22.534;2023-10-13T07:31:22;37.13;;;12.48;;
23121;SDS011;11730;51.248;22.534;2023-10-13T07:33:53;34.35;;;11.45;;
23121;SDS011;11730;51.248;22.534;2023-10-13T07:36:31;25.98;;;10.57;;
23121;SDS011;11730;51.248;22.534;2023-10-13T07:39:05;34.00;;;12.05;;
23121;SDS011;11730;51.248;22.534;2023-10-13T07:41:50;29.73;;;12.98;;
23121;SDS011;11730;51.248;22.534;2023-10-13T07:44:21;36.25;;;13.00;;
23121;SDS011;11730;51.248;22.534;2023-10-13T07:46:52;31.38;;;12.45;;
23121;SDS011;11730;51.248;22.534;2023-10-13T07:49:27;30.00;;;12.27;;
23121;SDS011;11730;51.248;22.534;2023-10-13T07:52:00;32.78;;;12.80;;
23121;SDS011;11730;51.248;22.534;2023-10-13T07:54:42;33.53;;;14.85;;
23121;SDS011;11730;51.248;22.534;2023-10-13T07:57:09;30.23;;;13.05;;
23121;SDS011;11730;51.248;22.534;2023-10-13T07:59:41;39.45;;;13.57;;
23121;SDS011;11730;51.248;22.534;2023-10-13T08:02:18;41.35;;;15.98;;
23121;SDS011;11730;51.248;22.534;2023-10-13T08:05:08;35.58;;;15.32;;
23121;SDS011;11730;51.248;22.534;2023-10-13T08:07:40;38.17;;;14.25;;
23121;SDS011;11730;51.248;22.534;2023-10-13T08:10:07;32.42;;;15.10;;
23121;SDS011;11730;51.248;22.534;2023-10-13T08:12:36;32.92;;;15.25;;
23121;SDS011;11730;51.248;22.534;2023-10-13T08:15:04;35.70;;;15.40;;
23121;SDS011;11730;51.248;22.534;2023-10-13T08:17:52;33.00;;;15.80;;
23121;SDS011;11730;51.248;22.534;2023-10-13T08:20:24;37.13;;;16.52;;
23121;SDS011;11730;51.248;22.534;2023-10-13T08:22:56;34.67;;;15.52;;
23121;SDS011;11730;51.248;22.534;2023-10-13T08:25:40;34.60;;;14.77;;
23121;SDS011;11730;51.248;22.534;2023-10-13T08:28:26;33.00;;;17.27;;
23121;SDS011;11730;51.248;22.534;2023-10-13T08:31:08;42.38;;;18.05;;
23121;SDS011;11730;51.248;22.534;2023-10-13T08:33:49;41.17;;;17.70;;
23121;SDS011;11730;51.248;22.534;2023-10-13T08:36:16;37.92;;;17.95;;
23121;SDS011;11730;51.248;22.534;2023-10-13T08:38:56;39.63;;;17.05;;
23121;SDS011;11730;51.248;22.534;2023-10-13T08:41:23;33.42;;;16.65;;
23121;SDS011;11730;51.248;22.534;2023-10-13T08:43:51;33.75;;;17.25;;
23121;SDS011;11730;51.248;22.534;2023-10-13T08:46:20;33.85;;;16.13;;
23121;SDS011;11730;51.248;22.534;2023-10-13T08:48:52;31.92;;;16.40;;
23121;SDS011;11730;51.248;22.534;2023-10-13T08:51:34;32.88;;;16.75;;
23121;SDS011;11730;51.248;22.534;2023-10-13T08:54:17;43.30;;;17.50;;
23121;SDS011;11730;51.248;22.534;2023-10-13T08:57:08;30.50;;;16.08;;
23121;SDS011;11730;51.248;22.534;2023-10-13T08:59:59;27.98;;;15.23;;
23121;SDS011;11730;51.248;22.534;2023-10-13T09:02:46;33.05;;;16.35;;
23121;SDS011;11730;51.248;22.534;2023-10-13T09:05:26;27.02;;;14.20;;
23121;SDS011;11730;51.248;22.534;2023-10-13T09:08:24;27.95;;;15.30;;
23121;SDS011;11730;51.248;22.534;2023-10-13T09:11:02;31.60;;;15.75;;
23121;SDS011;11730;51.248;22.534;2023-10-13T09:13:38;28.98;;;15.05;;
23121;SDS011;11730;51.248;22.534;2023-10-13T09:16:12;25.23;;;14.77;;
23121;SDS011;11730;51.248;22.534;2023-10-13T09:19:09;27.83;;;14.48;;
23121;SDS011;11730;51.248;22.534;2023-10-13T09:21:39;23.58;;;14.10;;
23121;SDS011;11730;51.248;22.534;2023-10-13T09:24:09;31.40;;;15.73;;
23121;SDS011;11730;51.248;22.534;2023-10-13T09:26:43;23.38;;;13.77;;
23121;SDS011;11730;51.248;22.534;2023-10-13T09:29:16;28.13;;;13.97;;
23121;SDS011;11730;51.248;22.534;2023-10-13T09:31:58;24.10;;;13.60;;
23121;SDS011;11730;51.248;22.534;2023-10-13T09:34:26;28.15;;;13.43;;
23121;SDS011;11730;51.248;22.534;2023-10-13T09:37:03;29.55;;;13.80;;
23121;SDS011;11730;51.248;22.534;2023-10-13T09:39:30;25.05;;;12.50;;
23121;SDS011;11730;51.248;22.534;2023-10-13T09:42:14;24.27;;;12.57;;
23121;SDS011;11730;51.248;22.534;2023-10-13T09:44:45;24.05;;;12.68;;
23121;SDS011;11730;51.248;22.534;2023-10-13T09:47:22;21.52;;;11.63;;
23121;SDS011;11730;51.248;22.534;2023-10-13T09:49:59;32.45;;;12.45;;
23121;SDS011;11730;51.248;22.534;2023-10-13T09:52:32;20.80;;;12.10;;
23121;SDS011;11730;51.248;22.534;2023-10-13T09:55:03;20.08;;;11.75;;
23121;SDS011;11730;51.248;22.534;2023-10-13T09:57:36;15.93;;;8.80;;
23121;SDS011;11730;51.248;22.534;2023-10-13T10:00:18;20.45;;;9.23;;
23121;SDS011;11730;51.248;22.534;2023-10-13T10:03:06;19.23;;;9.20;;
23121;SDS011;11730;51.248;22.534;2023-10-13T10:05:59;12.35;;;8.10;;
23121;SDS011;11730;51.248;22.534;2023-10-13T10:08:34;13.60;;;7.90;;
23121;SDS011;11730;51.248;22.534;2023-10-13T10:13:52;17.52;;;7.80;;
23121;SDS011;11730;51.248;22.534;2023-10-13T10:19:21;16.58;;;7.47;;
23121;SDS011;11730;51.248;22.534;2023-10-13T10:21:48;13.93;;;6.60;;
23121;SDS011;11730;51.248;22.534;2023-10-13T10:24:21;15.18;;;6.30;;
23121;SDS011;11730;51.248;22.534;2023-10-13T10:26:59;8.15;;;5.63;;
23121;SDS011;11730;51.248;22.534;2023-10-13T10:29:30;12.48;;;6.00;;
23121;SDS011;11730;51.248;22.534;2023-10-13T10:31:58;11.63;;;5.97;;
23121;SDS011;11730;51.248;22.534;2023-10-13T10:34:30;16.55;;;5.50;;
23121;SDS011;11730;51.248;22.534;2023-10-13T10:36:59;13.27;;;5.43;;
23121;SDS011;11730;51.248;22.534;2023-10-13T10:39:33;13.27;;;5.68;;
23121;SDS011;11730;51.248;22.534;2023-10-13T10:42:10;12.40;;;5.22;;
23121;SDS011;11730;51.248;22.534;2023-10-13T10:44:50;8.63;;;4.60;;
23121;SDS011;11730;51.248;22.534;2023-10-13T10:47:21;17.08;;;4.93;;
23121;SDS011;11730;51.248;22.534;2023-10-13T10:49:59;12.48;;;4.38;;
23121;SDS011;11730;51.248;22.534;2023-10-13T10:52:34;11.15;;;5.07;;
23121;SDS011;11730;51.248;22.534;2023-10-13T10:55:06;12.05;;;4.13;;
23121;SDS011;11730;51.248;22.534;2023-10-13T10:57:46;8.90;;;4.20;;
23121;SDS011;11730;51.248;22.534;2023-10-13T11:00:19;12.40;;;4.00;;
23121;SDS011;11730;51.248;22.534;2023-10-13T11:02:53;9.27;;;4.15;;
23121;SDS011;11730;51.248;22.534;2023-10-13T11:05:21;10.60;;;4.22;;
23121;SDS011;11730;51.248;22.534;2023-10-13T11:07:51;13.48;;;4.43;;
23121;SDS011;11730;51.248;22.534;2023-10-13T11:10:19;12.90;;;4.40;;
23121;SDS011;11730;51.248;22.534;2023-10-13T11:12:55;12.48;;;4.97;;
23121;SDS011;11730;51.248;22.534;2023-10-13T11:15:23;12.20;;;5.38;;
23121;SDS011;11730;51.248;22.534;2023-10-13T11:18:00;14.50;;;6.22;;
23121;SDS011;11730;51.248;22.534;2023-10-13T11:20:27;10.88;;;5.82;;
23121;SDS011;11730;51.248;22.534;2023-10-13T11:23:00;10.52;;;6.70;;
23121;SDS011;11730;51.248;22.534;2023-10-13T11:25:31;14.40;;;7.10;;
23121;SDS011;11730;51.248;22.534;2023-10-13T11:28:11;14.68;;;7.07;;
23121;SDS011;11730;51.248;22.534;2023-10-13T11:30:54;14.50;;;6.93;;
23121;SDS011;11730;51.248;22.534;2023-10-13T11:33:42;12.10;;;7.22;;
23121;SDS011;11730;51.248;22.534;2023-10-13T11:36:15;15.10;;;7.30;;
23121;SDS011;11730;51.248;22.534;2023-10-13T11:38:58;15.00;;;7.10;;
23121;SDS011;11730;51.248;22.534;2023-10-13T11:41:25;16.27;;;7.35;;
23121;SDS011;11730;51.248;22.534;2023-10-13T11:44:00;16.80;;;7.43;;
23121;SDS011;11730;51.248;22.534;2023-10-13T11:46:39;17.27;;;7.10;;
23121;SDS011;11730;51.248;22.534;2023-10-13T11:49:11;13.07;;;7.70;;
23121;SDS011;11730;51.248;22.534;2023-10-13T11:51:53;16.58;;;7.65;;
23121;SDS011;11730;51.248;22.534;2023-10-13T11:54:28;17.90;;;7.45;;
23121;SDS011;11730;51.248;22.534;2023-10-13T11:56:55;16.60;;;7.75;;
23121;SDS011;11730;51.248;22.534;2023-10-13T11:59:24;15.98;;;7.75;;
23121;SDS011;11730;51.248;22.534;2023-10-13T12:01:53;14.55;;;8.10;;
23121;SDS011;11730;51.248;22.534;2023-10-13T12:04:40;18.92;;;7.90;;
23121;SDS011;11730;51.248;22.534;2023-10-13T12:07:21;15.05;;;7.78;;
23121;SDS011;11730;51.248;22.534;2023-10-13T12:10:08;11.18;;;5.90;;
23121;SDS011;11730;51.248;22.534;2023-10-13T12:12:43;15.23;;;7.32;;
23121;SDS011;11730;51.248;22.534;2023-10-13T12:15:13;18.83;;;7.70;;
23121;SDS011;11730;51.248;22.534;2023-10-13T12:17:52;12.27;;;7.07;;
23121;SDS011;11730;51.248;22.534;2023-10-13T12:20:24;16.40;;;7.13;;
23121;SDS011;11730;51.248;22.534;2023-10-13T12:22:59;11.63;;;6.70;;
23121;SDS011;11730;51.248;22.534;2023-10-13T12:25:39;16.02;;;7.47;;
23121;SDS011;11730;51.248;22.534;2023-10-13T12:28:24;15.40;;;6.80;;
23121;SDS011;11730;51.248;22.534;2023-10-13T12:30:54;10.68;;;6.68;;
23121;SDS011;11730;51.248;22.534;2023-10-13T12:33:24;14.63;;;7.45;;
23121;SDS011;11730;51.248;22.534;2023-10-13T12:36:03;9.75;;;6.00;;
23121;SDS011;11730;51.248;22.534;2023-10-13T12:38:40;13.77;;;6.13;;
23121;SDS011;11730;51.248;22.534;2023-10-13T12:41:14;13.00;;;6.22;;
23121;SDS011;11730;51.248;22.534;2023-10-13T12:44:05;13.80;;;6.25;;
23121;SDS011;11730;51.248;22.534;2023-10-13T12:46:51;13.52;;;7.25;;
23121;SDS011;11730;51.248;22.534;2023-10-13T12:49:39;14.60;;;6.18;;
23121;SDS011;11730;51.248;22.534;2023-10-13T12:52:10;16.23;;;6.07;;
23121;SDS011;11730;51.248;22.534;2023-10-13T12:54:52;17.30;;;6.20;;
23121;SDS011;11730;51.248;22.534;2023-10-13T12:57:32;13.02;;;6.50;;
23121;SDS011;11730;51.248;22.534;2023-10-13T13:00:00;18.70;;;6.38;;
23121;SDS011;11730;51.248;22.534;2023-10-13T13:02:43;13.55;;;5.50;;
23121;SDS011;11730;51.248;22.534;2023-10-13T13:05:10;12.80;;;4.95;;
23121;SDS011;11730;51.248;22.534;2023-10-13T13:07:39;9.00;;;4.50;;
23121;SDS011;11730;51.248;22.534;2023-10-13T13:10:10;12.63;;;5.13;;
23121;SDS011;11730;51.248;22.534;2023-10-13T13:12:38;16.80;;;5.10;;
23121;SDS011;11730;51.248;22.534;2023-10-13T13:15:06;8.95;;;4.90;;
23121;SDS011;11730;51.248;22.534;2023-10-13T13:17:36;12.68;;;5.15;;
23121;SDS011;11730;51.248;22.534;2023-10-13T13:20:05;14.43;;;5.65;;
23121;SDS011;11730;51.248;22.534;2023-10-13T13:23:00;19.45;;;6.40;;
23121;SDS011;11730;51.248;22.534;2023-10-13T13:25:30;12.73;;;5.78;;
23121;SDS011;11730;51.248;22.534;2023-10-13T13:27:59;15.63;;;6.07;;
23121;SDS011;11730;51.248;22.534;2023-10-13T13:30:31;14.23;;;6.65;;
23121;SDS011;11730;51.248;22.534;2023-10-13T13:33:04;15.45;;;6.30;;
23121;SDS011;11730;51.248;22.534;2023-10-13T13:35:40;10.57;;;6.10;;
23121;SDS011;11730;51.248;22.534;2023-10-13T13:38:10;17.83;;;6.60;;
23121;SDS011;11730;51.248;22.534;2023-10-13T13:40:48;15.93;;;6.68;;
23121;SDS011;11730;51.248;22.534;2023-10-13T13:43:16;11.43;;;6.30;;
23121;SDS011;11730;51.248;22.534;2023-10-13T13:46:19;13.67;;;6.40;;
23121;SDS011;11730;51.248;22.534;2023-10-13T13:48:51;11.45;;;6.80;;
23121;SDS011;11730;51.248;22.534;2023-10-13T13:51:25;14.57;;;6.93;;
23121;SDS011;11730;51.248;22.534;2023-10-13T13:53:54;14.85;;;6.07;;
23121;SDS011;11730;51.248;22.534;2023-10-13T13:56:22;12.15;;;6.72;;
23121;SDS011;11730;51.248;22.534;2023-10-13T13:58:51;11.65;;;6.13;;
23121;SDS011;11730;51.248;22.534;2023-10-13T14:01:20;12.85;;;6.30;;
23121;SDS011;11730;51.248;22.534;2023-10-13T14:03:56;13.73;;;6.57;;
23121;SDS011;11730;51.248;22.534;2023-10-13T14:06:29;12.52;;;6.43;;
23121;SDS011;11730;51.248;22.534;2023-10-13T14:08:56;15.07;;;7.95;;
23121;SDS011;11730;51.248;22.534;2023-10-13T14:11:27;13.52;;;6.65;;
23121;SDS011;11730;51.248;22.534;2023-10-13T14:14:13;15.02;;;6.45;;
23121;SDS011;11730;51.248;22.534;2023-10-13T14:16:53;13.05;;;7.20;;
23121;SDS011;11730;51.248;22.534;2023-10-13T14:19:34;12.43;;;6.30;;
23121;SDS011;11730;51.248;22.534;2023-10-13T14:22:07;12.60;;;6.25;;
23121;SDS011;11730;51.248;22.534;2023-10-13T14:24:38;17.58;;;6.55;;
23121;SDS011;11730;51.248;22.534;2023-10-13T14:27:17;13.90;;;5.72;;
23121;SDS011;11730;51.248;22.534;2023-10-13T14:29:47;13.90;;;6.38;;
23121;SDS011;11730;51.248;22.534;2023-10-13T14:32:16;21.48;;;6.85;;
23121;SDS011;11730;51.248;22.534;2023-10-13T14:34:44;17.45;;;6.85;;
23121;SDS011;11730;51.248;22.534;2023-10-13T14:37:12;15.73;;;5.88;;
23121;SDS011;11730;51.248;22.534;2023-10-13T14:39:40;12.88;;;6.97;;
23121;SDS011;11730;51.248;22.534;2023-10-13T14:42:07;10.93;;;6.43;;
23121;SDS011;11730;51.248;22.534;2023-10-13T14:44:34;11.77;;;5.25;;
23121;SDS011;11730;51.248;22.534;2023-10-13T14:47:03;14.32;;;6.30;;
23121;SDS011;11730;51.248;22.534;2023-10-13T14:49:35;16.88;;;6.47;;
23121;SDS011;11730;51.248;22.534;2023-10-13T14:52:02;18.88;;;6.97;;
23121;SDS011;11730;51.248;22.534;2023-10-13T14:54:30;13.82;;;7.22;;
23121;SDS011;11730;51.248;22.534;2023-10-13T14:57:01;16.05;;;7.00;;
23121;SDS011;11730;51.248;22.534;2023-10-13T14:59:29;14.82;;;5.95;;
23121;SDS011;11730;51.248;22.534;2023-10-13T15:02:00;17.23;;;6.97;;
23121;SDS011;11730;51.248;22.534;2023-10-13T15:04:28;16.35;;;6.60;;
23121;SDS011;11730;51.248;22.534;2023-10-13T15:06:59;15.27;;;6.90;;
23121;SDS011;11730;51.248;22.534;2023-10-13T15:09:30;16.13;;;7.07;;
23121;SDS011;11730;51.248;22.534;2023-10-13T15:11:57;15.05;;;7.07;;
23121;SDS011;11730;51.248;22.534;2023-10-13T15:14:25;12.15;;;7.13;;
23121;SDS011;11730;51.248;22.534;2023-10-13T15:16:52;15.02;;;7.43;;
23121;SDS011;11730;51.248;22.534;2023-10-13T15:19:19;16.90;;;7.97;;